createdAt,value
2018-07-17T05:17:14.254Z,13.63
2018-07-17T05:19:43.250Z,12.63
2018-07-17T05:22:12.445Z,13.37
2018-07-17T05:24:40.897Z,13.50
2018-07-17T05:27:11.106Z,12.90
2018-07-17T05:29:39.787Z,13.00
2018-07-17T05:32:08.032Z,13.07
2018-07-17T05:34:37.848Z,13.90
2018-07-17T05:37:06.665Z,13.83
2018-07-17T05:39:37.349Z,13.27
2018-07-17T05:42:06.582Z,13.83
2018-07-17T05:44:35.396Z,14.03
2018-07-17T05:47:04.578Z,15.60
2018-07-17T05:49:34.444Z,14.47
2018-07-17T05:52:02.732Z,13.27
2018-07-17T05:54:31.615Z,14.03
2018-07-17T05:57:00.907Z,14.67
2018-07-17T05:59:29.194Z,13.50
2018-07-17T06:01:57.966Z,15.10
2018-07-17T06:04:27.082Z,13.67
2018-07-17T06:06:55.568Z,13.20
2018-07-17T06:09:24.161Z,13.90
2018-07-17T06:11:53.425Z,14.83
2018-07-17T06:14:23.258Z,14.90
2018-07-17T06:16:51.475Z,13.60
2018-07-17T06:19:20.950Z,14.43
2018-07-17T06:21:51.044Z,15.07
2018-07-17T06:24:19.348Z,14.30
2018-07-17T06:26:49.506Z,13.40
2018-07-17T06:29:17.711Z,13.73
2018-07-17T06:31:46.708Z,16.13
2018-07-17T06:34:16.443Z,11.80
2018-07-17T06:36:51.972Z,13.80
2018-07-17T06:39:21.402Z,12.77
2018-07-17T06:41:50.928Z,13.20
2018-07-17T06:44:20.283Z,12.60
2018-07-17T06:46:48.679Z,13.73
2018-07-17T06:49:16.903Z,11.47
2018-07-17T06:51:45.860Z,12.37
2018-07-17T06:54:14.692Z,9.83
2018-07-17T06:56:44.603Z,10.73
2018-07-17T06:59:13.983Z,10.33
2018-07-17T07:01:42.745Z,9.17
2018-07-17T07:04:12.485Z,8.97
2018-07-17T07:06:41.315Z,7.30
2018-07-17T07:09:10.498Z,6.90
2018-07-17T07:11:40.515Z,6.50
2018-07-17T07:14:08.792Z,5.70
2018-07-17T07:16:37.382Z,5.23
2018-07-17T07:19:06.936Z,5.03
2018-07-17T07:21:35.506Z,5.37
2018-07-17T07:24:04.059Z,5.60
2018-07-17T07:26:33.942Z,6.50
2018-07-17T07:29:03.386Z,6.27
2018-07-17T07:31:31.599Z,6.17
2018-07-17T07:34:00.903Z,6.47
2018-07-17T07:36:29.624Z,7.23
2018-07-17T07:38:58.932Z,6.47
2018-07-17T07:41:29.971Z,9.03
2018-07-17T07:43:59.335Z,8.70
2018-07-17T07:46:27.605Z,7.50
2018-07-17T07:48:56.916Z,6.13
2018-07-17T07:51:26.882Z,5.80
2018-07-17T07:53:57.736Z,6.10
2018-07-17T07:56:27.507Z,5.93
2018-07-17T07:58:56.622Z,6.00
2018-07-17T08:01:24.839Z,5.13
2018-07-17T08:03:55.025Z,4.77
2018-07-17T08:06:23.196Z,6.17
2018-07-17T08:08:51.659Z,4.77
2018-07-17T08:11:22.398Z,3.30
2018-07-17T15:34:16.267Z,3.87
2018-07-17T15:36:45.300Z,2.90
2018-07-17T15:39:14.767Z,3.20
2018-07-17T15:41:43.544Z,3.30
2018-07-17T15:44:12.544Z,2.80
2018-07-17T15:46:41.639Z,3.20
2018-07-17T15:49:09.875Z,3.87
2018-07-17T15:51:39.433Z,3.20
2018-07-17T15:54:07.852Z,3.30
2018-07-17T15:56:38.111Z,3.37
2018-07-17T15:59:07.014Z,3.13
2018-07-17T16:01:35.217Z,3.03
2018-07-17T16:04:03.716Z,3.50
2018-07-17T16:06:32.896Z,2.57
2018-07-17T16:09:01.605Z,3.10
2018-07-17T16:11:30.036Z,3.27
2018-07-17T16:14:00.495Z,2.83
2018-07-17T16:16:28.334Z,3.63
2018-07-17T16:18:56.783Z,3.33
2018-07-17T16:21:25.016Z,4.03
2018-07-17T16:23:54.007Z,3.90
2018-07-17T16:26:24.866Z,3.30
2018-07-17T16:28:53.828Z,3.47
2018-07-17T16:31:23.515Z,4.43
2018-07-17T16:33:53.040Z,3.62
2018-07-17T16:36:21.767Z,2.70
2018-07-17T16:38:52.879Z,3.50
2018-07-17T16:41:28.987Z,3.17
2018-07-17T16:43:57.917Z,3.60
2018-07-17T16:46:26.979Z,4.60
2018-07-17T16:48:56.168Z,3.33
2018-07-17T16:51:24.710Z,3.77
2018-07-17T16:53:54.027Z,2.83
2018-07-17T16:56:24.913Z,2.77
2018-07-17T16:58:53.182Z,2.80
2018-07-17T17:01:24.425Z,2.83
2018-07-17T17:03:52.628Z,2.43
2018-07-17T17:06:21.364Z,2.50
2018-07-17T17:08:50.508Z,1.80
2018-07-17T17:11:19.378Z,2.13
2018-07-17T17:13:47.567Z,1.90
2018-07-17T17:16:18.141Z,1.90
2018-07-17T17:18:46.840Z,2.50
2018-07-17T17:21:16.507Z,1.93
2018-07-17T17:23:46.582Z,1.90
2018-07-17T17:26:15.622Z,2.40
2018-07-17T17:28:44.239Z,1.50
2018-07-17T17:31:13.036Z,1.60
2018-07-17T17:33:41.458Z,2.00
2018-07-17T17:36:10.524Z,2.20
2018-07-17T17:38:41.660Z,1.70
2018-07-17T17:41:10.504Z,2.03
2018-07-17T17:43:39.366Z,1.70
2018-07-17T17:46:09.657Z,1.83
2018-07-17T17:48:39.771Z,1.67
2018-07-17T17:51:09.655Z,1.70
2018-07-17T17:53:39.094Z,1.47
2018-07-17T17:56:07.634Z,1.33
2018-07-17T17:58:38.213Z,2.00
2018-07-17T18:01:07.441Z,1.20
2018-07-17T18:03:36.660Z,1.77
2018-07-17T18:06:05.558Z,1.30
2018-07-17T18:08:33.952Z,1.50
2018-07-17T18:11:01.939Z,1.70
2018-07-17T18:13:30.162Z,1.37
2018-07-17T18:15:58.810Z,1.90
2018-07-17T18:18:27.019Z,1.53
2018-07-17T18:20:55.796Z,1.67
2018-07-17T18:23:24.902Z,1.47
2018-07-17T18:28:28.030Z,2.33
2018-07-17T18:30:57.519Z,2.03
2018-07-17T18:33:27.752Z,1.80
2018-07-17T18:35:57.747Z,2.27
2018-07-17T18:38:27.594Z,1.93
2018-07-17T18:40:56.846Z,1.93
2018-07-17T18:43:25.771Z,1.97
2018-07-17T18:45:54.790Z,1.90
2018-07-17T18:48:24.568Z,2.37
2018-07-17T18:50:53.597Z,2.07
2018-07-17T18:53:24.848Z,1.77
2018-07-17T18:55:54.465Z,2.33
2018-07-17T18:58:23.201Z,2.53
2018-07-17T19:00:52.019Z,1.90
2018-07-17T19:03:21.064Z,1.40
2018-07-17T19:05:50.499Z,2.13
2018-07-17T19:08:18.931Z,1.87
2018-07-17T19:10:48.679Z,2.13
2018-07-17T19:13:18.523Z,2.17
2018-07-17T19:15:49.289Z,2.00
2018-07-17T19:18:20.951Z,1.43
2018-07-17T19:20:53.651Z,1.70
2018-07-17T19:23:23.870Z,2.30
2018-07-17T19:25:52.412Z,1.87
2018-07-17T19:28:23.428Z,2.30
2018-07-17T19:30:54.309Z,2.27
2018-07-17T19:33:23.655Z,2.50
2018-07-17T19:35:52.650Z,2.33
2018-07-17T19:38:21.551Z,1.80
2018-07-17T19:40:49.933Z,3.10
2018-07-17T19:43:19.627Z,2.67
2018-07-17T19:45:49.548Z,2.60
2018-07-17T19:48:19.438Z,2.43
2018-07-17T19:50:49.412Z,3.27
2018-07-17T19:53:19.492Z,2.53
2018-07-17T19:55:48.611Z,2.97
2018-07-17T19:58:18.206Z,2.40
2018-07-17T20:00:48.012Z,2.63
2018-07-17T20:03:17.987Z,2.90
2018-07-17T20:05:46.133Z,2.60
2018-07-17T20:08:15.344Z,3.07
2018-07-17T20:10:44.914Z,2.83
2018-07-17T20:13:13.796Z,2.20
2018-07-17T20:15:42.294Z,3.40
2018-07-17T20:18:11.438Z,3.00
2018-07-17T20:20:41.108Z,2.90
2018-07-17T20:23:09.487Z,3.40
2018-07-17T20:25:38.311Z,3.37
2018-07-17T20:28:09.703Z,3.10
2018-07-17T20:30:39.112Z,3.47
2018-07-17T20:33:08.524Z,3.00
2018-07-17T20:35:37.307Z,4.13
2018-07-17T20:38:08.220Z,3.60
2018-07-17T20:40:37.629Z,5.10
2018-07-17T20:43:06.294Z,3.07
2018-07-17T20:45:35.138Z,3.43
2018-07-17T20:48:04.533Z,3.40
2018-07-17T20:50:34.622Z,3.03
2018-07-17T20:53:03.774Z,4.23
2018-07-17T20:55:32.320Z,4.13
2018-07-17T20:58:01.067Z,4.60
2018-07-17T21:00:29.339Z,3.93
2018-07-17T21:02:59.999Z,4.60
2018-07-17T21:05:29.227Z,4.23
2018-07-17T21:07:59.359Z,4.00
2018-07-17T21:10:28.976Z,4.17
2018-07-17T21:12:57.660Z,4.40
2018-07-17T21:15:25.870Z,4.63
2018-07-17T21:18:00.805Z,4.70
2018-07-17T21:20:29.449Z,4.23
2018-07-17T21:22:58.767Z,5.40
2018-07-17T21:25:27.804Z,4.77
2018-07-17T21:27:58.212Z,4.40
2018-07-17T21:30:27.095Z,4.33
2018-07-17T21:32:55.736Z,5.20
2018-07-17T21:35:25.236Z,4.83
2018-07-17T21:37:54.926Z,4.40
2018-07-17T21:40:23.402Z,5.40
2018-07-17T21:42:52.942Z,4.77
2018-07-17T21:45:21.230Z,5.33
2018-07-17T21:47:50.689Z,5.60
2018-07-17T21:50:19.522Z,5.60
2018-07-17T21:52:48.786Z,5.20
2018-07-17T21:55:17.619Z,5.90
2018-07-17T21:57:45.846Z,5.63
2018-07-17T22:00:14.081Z,4.77
2018-07-17T22:02:42.793Z,5.30
2018-07-17T22:05:12.492Z,4.80
2018-07-17T22:07:40.739Z,5.60
2018-07-17T22:10:09.868Z,5.93
2018-07-17T22:12:38.224Z,4.83
2018-07-17T22:15:08.953Z,4.80
2018-07-17T22:17:41.191Z,5.50
2018-07-17T22:20:09.973Z,5.93
2018-07-17T22:22:38.178Z,5.50
2018-07-17T22:25:09.008Z,5.23
2018-07-17T22:27:39.707Z,6.00
2018-07-17T22:30:08.619Z,5.70
2018-07-17T22:32:39.039Z,5.30
2018-07-17T22:35:07.677Z,5.53
2018-07-17T22:37:35.916Z,5.23
2018-07-17T22:40:04.990Z,5.40
2018-07-17T22:42:39.003Z,5.47
2018-07-17T22:45:07.384Z,5.70
2018-07-17T22:47:36.478Z,5.83
2018-07-17T22:50:05.339Z,5.13
2018-07-17T22:52:33.525Z,5.20
2018-07-17T22:55:03.380Z,5.30
2018-07-17T22:57:33.664Z,4.53
2018-07-17T23:00:01.903Z,4.40
2018-07-17T23:02:30.152Z,5.70
2018-07-17T23:04:58.363Z,5.30
2018-07-17T23:07:29.251Z,4.80
2018-07-17T23:09:58.450Z,4.80
2018-07-17T23:12:27.272Z,4.77
2018-07-17T23:14:58.115Z,4.77
2018-07-17T23:17:28.440Z,4.50
2018-07-17T23:20:00.367Z,4.90
2018-07-17T23:22:50.631Z,4.70
2018-07-17T23:25:20.931Z,5.07
2018-07-17T23:27:50.047Z,4.67
2018-07-17T23:30:18.594Z,4.43
2018-07-17T23:32:49.471Z,4.63
2018-07-17T23:35:21.250Z,4.63
2018-07-17T23:37:55.217Z,7.70
2018-07-17T23:40:24.284Z,5.10
2018-07-17T23:42:54.453Z,4.47
2018-07-17T23:45:23.315Z,4.40
2018-07-17T23:47:53.747Z,4.60
2018-07-17T23:50:22.617Z,4.63
2018-07-17T23:52:52.210Z,5.53
2018-07-17T23:55:21.052Z,4.40
2018-07-17T23:57:49.294Z,4.93
